sensor_id;sensor_type;location;lat;lon;timestamp;pressure;altitude;pressure_sealevel;temperature;humidity
49825;BME280;35714;55.708;37.478;2023-05-10T00:01:29;100430.44;;;10.47;29.29
49825;BME280;35714;55.708;37.478;2023-05-10T00:03:55;100429.41;;;10.49;29.43
49825;BME280;35714;55.708;37.478;2023-05-10T00:06:21;100420.44;;;10.41;29.44
49825;BME280;35714;55.708;37.478;2023-05-10T00:08:46;100422.72;;;10.44;29.32
49825;BME280;35714;55.708;37.478;2023-05-10T00:11:12;100405.38;;;10.32;29.22
49825;BME280;35714;55.708;37.478;2023-05-10T00:13:37;100419.81;;;10.39;29.29
49825;BME280;35714;55.708;37.478;2023-05-10T00:16:03;100426.06;;;10.40;29.24
49825;BME280;35714;55.708;37.478;2023-05-10T00:18:29;100418.94;;;10.39;29.21
49825;BME280;35714;55.708;37.478;2023-05-10T00:20:55;100415.00;;;10.35;29.30
49825;BME280;35714;55.708;37.478;2023-05-10T00:23:20;100425.44;;;10.38;29.55
49825;BME280;35714;55.708;37.478;2023-05-10T00:25:46;100430.66;;;10.39;29.79
49825;BME280;35714;55.708;37.478;2023-05-10T00:28:11;100433.38;;;10.39;29.60
49825;BME280;35714;55.708;37.478;2023-05-10T00:30:37;100431.28;;;10.41;29.88
49825;BME280;35714;55.708;37.478;2023-05-10T00:33:03;100428.97;;;10.38;29.65
49825;BME280;35714;55.708;37.478;2023-05-10T00:35:28;100429.19;;;10.37;29.73
49825;BME280;35714;55.708;37.478;2023-05-10T00:37:54;100428.34;;;10.36;29.63
49825;BME280;35714;55.708;37.478;2023-05-10T00:40:20;100425.00;;;10.34;29.37
49825;BME280;35714;55.708;37.478;2023-05-10T00:42:50;100422.09;;;10.36;29.46
49825;BME280;35714;55.708;37.478;2023-05-10T00:45:15;100419.16;;;10.30;29.41
49825;BME280;35714;55.708;37.478;2023-05-10T00:47:41;100425.66;;;10.36;29.42
49825;BME280;35714;55.708;37.478;2023-05-10T00:50:07;100426.69;;;10.35;29.24
49825;BME280;35714;55.708;37.478;2023-05-10T00:52:34;100429.19;;;10.37;29.02
49825;BME280;35714;55.708;37.478;2023-05-10T00:55:00;100435.44;;;10.37;28.98
49825;BME280;35714;55.708;37.478;2023-05-10T00:57:26;100435.44;;;10.37;28.77
49825;BME280;35714;55.708;37.478;2023-05-10T00:59:52;100423.75;;;10.37;28.96
49825;BME280;35714;55.708;37.478;2023-05-10T01:02:18;100428.34;;;10.36;28.93
49825;BME280;35714;55.708;37.478;2023-05-10T01:04:43;100421.25;;;10.35;29.04
49825;BME280;35714;55.708;37.478;2023-05-10T01:07:09;100412.50;;;10.33;28.70
49825;BME280;35714;55.708;37.478;2023-05-10T01:09:36;100411.22;;;10.29;28.95
49825;BME280;35714;55.708;37.478;2023-05-10T01:12:02;100406.41;;;10.24;28.54
49825;BME280;35714;55.708;37.478;2023-05-10T01:14:29;100418.31;;;10.30;28.58
49825;BME280;35714;55.708;37.478;2023-05-10T01:16:55;100419.78;;;10.33;28.62
49825;BME280;35714;55.708;37.478;2023-05-10T01:19:29;100410.41;;;10.35;28.56
49825;BME280;35714;55.708;37.478;2023-05-10T01:35:53;100425.00;;;10.34;29.24
49825;BME280;35714;55.708;37.478;2023-05-10T01:38:38;100421.66;;;10.32;29.78
49825;BME280;35714;55.708;37.478;2023-05-10T01:41:17;100420.81;;;10.32;29.55
49825;BME280;35714;55.708;37.478;2023-05-10T01:43:57;100396.84;;;10.22;29.87
49825;BME280;35714;55.708;37.478;2023-05-10T01:46:35;100414.13;;;10.27;29.45
49825;BME280;35714;55.708;37.478;2023-05-10T01:49:02;100414.97;;;10.28;29.31
49825;BME280;35714;55.708;37.478;2023-05-10T01:51:38;100413.31;;;10.27;29.39
49825;BME280;35714;55.708;37.478;2023-05-10T01:54:04;100418.75;;;10.34;28.79
49825;BME280;35714;55.708;37.478;2023-05-10T01:56:32;100421.25;;;10.35;28.75
49825;BME280;35714;55.708;37.478;2023-05-10T01:58:59;100415.59;;;10.30;29.91
49825;BME280;35714;55.708;37.478;2023-05-10T02:01:27;100403.31;;;10.21;29.84
49825;BME280;35714;55.708;37.478;2023-05-10T02:03:53;100413.31;;;10.27;29.79
49825;BME280;35714;55.708;37.478;2023-05-10T02:06:21;100403.91;;;10.23;29.91
49825;BME280;35714;55.708;37.478;2023-05-10T02:08:49;100410.41;;;10.28;30.65
49825;BME280;35714;55.708;37.478;2023-05-10T02:11:15;100419.56;;;10.27;30.75
49825;BME280;35714;55.708;37.478;2023-05-10T02:13:43;100416.03;;;10.27;30.76
49825;BME280;35714;55.708;37.478;2023-05-10T02:16:11;100414.97;;;10.28;31.16
49825;BME280;35714;55.708;37.478;2023-05-10T02:18:40;100411.22;;;10.29;31.30
49825;BME280;35714;55.708;37.478;2023-05-10T02:21:07;100409.53;;;10.28;31.16
49825;BME280;35714;55.708;37.478;2023-05-10T02:23:34;100408.72;;;10.27;30.85
49825;BME280;35714;55.708;37.478;2023-05-10T02:26:02;100409.75;;;10.26;30.97
49825;BME280;35714;55.708;37.478;2023-05-10T02:28:29;100413.31;;;10.27;30.63
49825;BME280;35714;55.708;37.478;2023-05-10T02:30:57;100412.25;;;10.28;30.33
49825;BME280;35714;55.708;37.478;2023-05-10T02:33:23;100400.19;;;10.24;30.07
49825;BME280;35714;55.708;37.478;2023-05-10T02:35:52;100391.00;;;10.25;30.13
49825;BME280;35714;55.708;37.478;2023-05-10T02:38:19;100407.88;;;10.27;30.14
49825;BME280;35714;55.708;37.478;2023-05-10T02:40:46;100408.72;;;10.27;30.22
49825;BME280;35714;55.708;37.478;2023-05-10T02:43:15;100402.06;;;10.30;30.09
49825;BME280;35714;55.708;37.478;2023-05-10T02:45:43;100402.06;;;10.30;29.93
49825;BME280;35714;55.708;37.478;2023-05-10T02:48:09;100401.00;;;10.31;29.94
49825;BME280;35714;55.708;37.478;2023-05-10T02:50:36;100404.38;;;10.33;29.87
49825;BME280;35714;55.708;37.478;2023-05-10T02:53:06;100398.75;;;10.35;29.92
49825;BME280;35714;55.708;37.478;2023-05-10T02:55:37;100402.06;;;10.37;30.00
49825;BME280;35714;55.708;37.478;2023-05-10T02:58:04;100403.75;;;10.38;29.76
49825;BME280;35714;55.708;37.478;2023-05-10T03:00:30;100405.19;;;10.40;29.82
49825;BME280;35714;55.708;37.478;2023-05-10T03:02:56;100399.56;;;10.42;29.67
49825;BME280;35714;55.708;37.478;2023-05-10T03:05:22;100400.84;;;10.39;29.78
49825;BME280;35714;55.708;37.478;2023-05-10T03:07:48;100398.72;;;10.41;29.79
49825;BME280;35714;55.708;37.478;2023-05-10T03:10:14;100396.63;;;10.43;29.66
49825;BME280;35714;55.708;37.478;2023-05-10T03:18:21;100394.94;;;10.62;29.94
49825;BME280;35714;55.708;37.478;2023-05-10T03:20:50;100387.66;;;10.63;29.67
49825;BME280;35714;55.708;37.478;2023-05-10T03:23:27;100387.44;;;10.71;29.93
49825;BME280;35714;55.708;37.478;2023-05-10T03:25:56;100398.66;;;10.81;29.86
49825;BME280;35714;55.708;37.478;2023-05-10T03:28:24;100396.56;;;10.90;30.17
49825;BME280;35714;55.708;37.478;2023-05-10T03:30:52;100398.81;;;11.00;29.99
49825;BME280;35714;55.708;37.478;2023-05-10T03:33:18;100401.97;;;11.04;30.05
49825;BME280;35714;55.708;37.478;2023-05-10T03:35:46;100402.53;;;11.12;29.75
49825;BME280;35714;55.708;37.478;2023-05-10T03:38:12;100394.44;;;11.06;29.36
49825;BME280;35714;55.708;37.478;2023-05-10T03:40:38;100403.19;;;11.08;29.37
49825;BME280;35714;55.708;37.478;2023-05-10T03:43:04;100396.75;;;11.02;29.82
49825;BME280;35714;55.708;37.478;2023-05-10T03:45:30;100395.28;;;10.99;29.58
49825;BME280;35714;55.708;37.478;2023-05-10T03:47:59;100395.69;;;11.03;29.73
49825;BME280;35714;55.708;37.478;2023-05-10T03:50:25;100397.75;;;11.08;29.58
49825;BME280;35714;55.708;37.478;2023-05-10T03:52:53;100395.91;;;11.08;29.59
49825;BME280;35714;55.708;37.478;2023-05-10T03:55:18;100400.84;;;11.11;29.39
49825;BME280;35714;55.708;37.478;2023-05-10T03:57:45;100393.34;;;11.13;29.68
49825;BME280;35714;55.708;37.478;2023-05-10T04:00:11;100385.22;;;11.13;29.43
49825;BME280;35714;55.708;37.478;2023-05-10T04:02:41;100377.50;;;11.10;29.62
49825;BME280;35714;55.708;37.478;2023-05-10T04:05:10;100393.09;;;11.22;29.44
49825;BME280;35714;55.708;37.478;2023-05-10T04:07:35;100387.44;;;11.30;29.56
49825;BME280;35714;55.708;37.478;2023-05-10T04:10:01;100376.56;;;11.30;29.42
49825;BME280;35714;55.708;37.478;2023-05-10T04:12:30;100389.22;;;11.49;29.19
49825;BME280;35714;55.708;37.478;2023-05-10T04:14:55;100386.63;;;11.61;29.17
49825;BME280;35714;55.708;37.478;2023-05-10T04:17:21;100384.94;;;11.67;28.98
49825;BME280;35714;55.708;37.478;2023-05-10T04:19:47;100376.56;;;11.68;29.17
49825;BME280;35714;55.708;37.478;2023-05-10T04:22:12;100382.56;;;11.77;29.05
49825;BME280;35714;55.708;37.478;2023-05-10T04:24:38;100380.47;;;11.79;28.96
49825;BME280;35714;55.708;37.478;2023-05-10T04:27:04;100380.81;;;11.89;29.04
49825;BME280;35714;55.708;37.478;2023-05-10T04:29:29;100375.97;;;11.98;28.85
49825;BME280;35714;55.708;37.478;2023-05-10T04:31:55;100375.84;;;12.18;28.77
49825;BME280;35714;55.708;37.478;2023-05-10T04:34:22;100371.97;;;12.26;28.65
49825;BME280;35714;55.708;37.478;2023-05-10T04:36:47;100377.69;;;12.43;28.54
49825;BME280;35714;55.708;37.478;2023-05-10T04:39:13;100374.91;;;12.50;28.43
49825;BME280;35714;55.708;37.478;2023-05-10T04:41:39;100373.78;;;12.57;28.36
49825;BME280;35714;55.708;37.478;2023-05-10T04:44:04;100366.97;;;12.67;27.93
49825;BME280;35714;55.708;37.478;2023-05-10T04:46:30;100363.66;;;12.64;28.01
49825;BME280;35714;55.708;37.478;2023-05-10T04:48:56;100375.31;;;12.72;27.94
49825;BME280;35714;55.708;37.478;2023-05-10T04:51:22;100366.53;;;12.88;28.14
49825;BME280;35714;55.708;37.478;2023-05-10T04:53:47;100366.53;;;13.07;27.74
49825;BME280;35714;55.708;37.478;2023-05-10T04:56:13;100366.75;;;13.24;27.31
49825;BME280;35714;55.708;37.478;2023-05-10T04:58:39;100368.72;;;13.35;27.12
49825;BME280;35714;55.708;37.478;2023-05-10T05:01:08;100364.66;;;13.56;26.91
49825;BME280;35714;55.708;37.478;2023-05-10T05:03:34;100369.81;;;13.76;26.99
49825;BME280;35714;55.708;37.478;2023-05-10T05:06:00;100368.44;;;13.97;26.70
49825;BME280;35714;55.708;37.478;2023-05-10T05:08:26;100370.97;;;14.11;26.40
49825;BME280;35714;55.708;37.478;2023-05-10T05:10:52;100358.66;;;14.20;26.31
49825;BME280;35714;55.708;37.478;2023-05-10T05:13:18;100366.13;;;14.36;25.28
49825;BME280;35714;55.708;37.478;2023-05-10T05:15:44;100354.75;;;14.28;24.92
49825;BME280;35714;55.708;37.478;2023-05-10T05:18:09;100353.88;;;14.27;24.93
49825;BME280;35714;55.708;37.478;2023-05-10T05:20:35;100358.78;;;14.37;24.57
49825;BME280;35714;55.708;37.478;2023-05-10T05:23:01;100357.34;;;14.34;24.49
49825;BME280;35714;55.708;37.478;2023-05-10T05:25:26;100358.88;;;14.30;24.65
49825;BME280;35714;55.708;37.478;2023-05-10T05:27:52;100348.69;;;14.37;24.66
49825;BME280;35714;55.708;37.478;2023-05-10T05:30:18;100353.41;;;14.54;24.60
49825;BME280;35714;55.708;37.478;2023-05-10T05:32:44;100346.78;;;14.73;24.12
49825;BME280;35714;55.708;37.478;2023-05-10T05:35:09;100350.81;;;14.83;24.40
49825;BME280;35714;55.708;37.478;2023-05-10T05:37:35;100358.81;;;15.01;24.16
49825;BME280;35714;55.708;37.478;2023-05-10T05:40:01;100347.50;;;15.21;23.76
49825;BME280;35714;55.708;37.478;2023-05-10T05:42:30;100351.47;;;15.42;23.42
49825;BME280;35714;55.708;37.478;2023-05-10T05:44:56;100350.75;;;15.64;23.36
49825;BME280;35714;55.708;37.478;2023-05-10T05:47:22;100350.25;;;15.79;23.02
49825;BME280;35714;55.708;37.478;2023-05-10T05:49:47;100339.06;;;15.80;22.53
49825;BME280;35714;55.708;37.478;2023-05-10T05:52:13;100344.03;;;15.83;21.97
49825;BME280;35714;55.708;37.478;2023-05-10T05:54:39;100346.69;;;15.78;21.91
49825;BME280;35714;55.708;37.478;2023-05-10T05:57:05;100347.16;;;15.75;22.02
49825;BME280;35714;55.708;37.478;2023-05-10T05:59:31;100347.84;;;15.82;22.24
49825;BME280;35714;55.708;37.478;2023-05-10T06:01:56;100333.25;;;15.94;21.68
49825;BME280;35714;55.708;37.478;2023-05-10T06:04:22;100337.97;;;15.98;22.03
49825;BME280;35714;55.708;37.478;2023-05-10T06:06:48;100340.72;;;16.15;21.82
49825;BME280;35714;55.708;37.478;2023-05-10T06:09:13;100337.56;;;16.23;21.15
49825;BME280;35714;55.708;37.478;2023-05-10T06:11:39;100338.66;;;16.22;21.27
49825;BME280;35714;55.708;37.478;2023-05-10T06:14:05;100331.00;;;16.24;20.78
49825;BME280;35714;55.708;37.478;2023-05-10T06:16:33;100337.16;;;16.32;20.86
49825;BME280;35714;55.708;37.478;2023-05-10T06:18:58;100336.78;;;16.45;20.86
49825;BME280;35714;55.708;37.478;2023-05-10T06:21:24;100322.38;;;16.72;20.91
49825;BME280;35714;55.708;37.478;2023-05-10T06:23:49;100331.38;;;17.11;20.61
49825;BME280;35714;55.708;37.478;2023-05-10T06:26:15;100329.63;;;17.27;19.62
49825;BME280;35714;55.708;37.478;2023-05-10T06:28:41;100317.63;;;17.06;19.82
49825;BME280;35714;55.708;37.478;2023-05-10T06:31:07;100328.50;;;17.23;20.28
49825;BME280;35714;55.708;37.478;2023-05-10T06:33:33;100327.78;;;17.60;20.34
49825;BME280;35714;55.708;37.478;2023-05-10T06:35:59;100319.91;;;17.96;19.93
49825;BME280;35714;55.708;37.478;2023-05-10T06:38:25;100325.50;;;18.12;19.48
49825;BME280;35714;55.708;37.478;2023-05-10T06:40:51;100326.69;;;18.21;19.39
49825;BME280;35714;55.708;37.478;2023-05-10T06:43:17;100320.97;;;18.33;19.40
49825;BME280;35714;55.708;37.478;2023-05-10T06:45:43;100316.97;;;18.46;19.36
49825;BME280;35714;55.708;37.478;2023-05-10T06:48:08;100324.19;;;18.62;19.00
49825;BME280;35714;55.708;37.478;2023-05-10T06:50:34;100325.81;;;18.58;18.37
49825;BME280;35714;55.708;37.478;2023-05-10T06:53:00;100319.75;;;18.51;18.05
49825;BME280;35714;55.708;37.478;2023-05-10T06:55:27;100316.66;;;18.42;17.60
49825;BME280;35714;55.708;37.478;2023-05-10T06:57:53;100316.53;;;18.21;18.11
49825;BME280;35714;55.708;37.478;2023-05-10T07:00:20;100299.75;;;18.18;18.67
49825;BME280;35714;55.708;37.478;2023-05-10T07:02:46;100317.50;;;18.43;18.84
49825;BME280;35714;55.708;37.478;2023-05-10T07:05:12;100314.28;;;18.61;17.62
49825;BME280;35714;55.708;37.478;2023-05-10T07:07:38;100320.03;;;18.54;17.76
49825;BME280;35714;55.708;37.478;2023-05-10T07:10:05;100307.72;;;18.67;17.59
49825;BME280;35714;55.708;37.478;2023-05-10T07:12:31;100325.41;;;18.82;16.95
49825;BME280;35714;55.708;37.478;2023-05-10T07:14:56;100308.31;;;18.69;17.01
49825;BME280;35714;55.708;37.478;2023-05-10T07:17:22;100309.91;;;18.65;16.21
49825;BME280;35714;55.708;37.478;2023-05-10T07:19:48;100302.19;;;18.57;16.40
49825;BME280;35714;55.708;37.478;2023-05-10T07:22:15;100296.69;;;18.52;17.10
49825;BME280;35714;55.708;37.478;2023-05-10T07:24:40;100295.63;;;18.63;16.66
49825;BME280;35714;55.708;37.478;2023-05-10T07:27:06;100297.97;;;18.87;17.11
49825;BME280;35714;55.708;37.478;2023-05-10T07:29:32;100297.53;;;19.26;16.21
49825;BME280;35714;55.708;37.478;2023-05-10T07:31:58;100287.63;;;19.30;16.40
49825;BME280;35714;55.708;37.478;2023-05-10T07:34:24;100284.09;;;19.55;16.41
49825;BME280;35714;55.708;37.478;2023-05-10T07:36:49;100285.53;;;19.89;16.76
49825;BME280;35714;55.708;37.478;2023-05-10T07:39:15;100281.06;;;20.29;16.63
49825;BME280;35714;55.708;37.478;2023-05-10T07:41:42;100294.19;;;20.78;15.87
49825;BME280;35714;55.708;37.478;2023-05-10T07:44:07;100296.81;;;21.04;15.23
49825;BME280;35714;55.708;37.478;2023-05-10T07:46:33;100296.75;;;21.14;15.48
49825;BME280;35714;55.708;37.478;2023-05-10T07:48:59;100282.75;;;21.50;15.88
49825;BME280;35714;55.708;37.478;2023-05-10T07:51:24;100284.66;;;21.89;14.53
49825;BME280;35714;55.708;37.478;2023-05-10T07:53:50;100289.25;;;21.99;14.18
49825;BME280;35714;55.708;37.478;2023-05-10T07:56:25;100293.38;;;22.02;14.45
49825;BME280;35714;55.708;37.478;2023-05-10T07:58:53;100280.25;;;22.47;14.72
49825;BME280;35714;55.708;37.478;2023-05-10T08:01:19;100278.66;;;22.89;14.07
49825;BME280;35714;55.708;37.478;2023-05-10T08:03:45;100276.06;;;23.36;13.47
49825;BME280;35714;55.708;37.478;2023-05-10T08:06:11;100285.59;;;23.49;13.66
49825;BME280;35714;55.708;37.478;2023-05-10T08:08:37;100281.44;;;23.84;13.51
49825;BME280;35714;55.708;37.478;2023-05-10T08:11:03;100281.63;;;24.21;13.18
49825;BME280;35714;55.708;37.478;2023-05-10T08:13:29;100271.53;;;24.72;13.22
49825;BME280;35714;55.708;37.478;2023-05-10T08:15:56;100267.69;;;25.46;12.82
49825;BME280;35714;55.708;37.478;2023-05-10T08:18:22;100254.22;;;26.07;12.37
49825;BME280;35714;55.708;37.478;2023-05-10T08:20:48;100263.56;;;26.51;11.42
49825;BME280;35714;55.708;37.478;2023-05-10T08:23:13;100260.09;;;26.37;11.06
49825;BME280;35714;55.708;37.478;2023-05-10T08:25:39;100252.09;;;26.44;11.88
49825;BME280;35714;55.708;37.478;2023-05-10T08:28:05;100261.94;;;27.16;12.24
49825;BME280;35714;55.708;37.478;2023-05-10T08:30:31;100249.44;;;28.01;11.16
49825;BME280;35714;55.708;37.478;2023-05-10T08:32:57;100238.00;;;28.71;11.09
49825;BME280;35714;55.708;37.478;2023-05-10T08:35:22;100256.13;;;29.37;10.91
49825;BME280;35714;55.708;37.478;2023-05-10T08:37:48;100259.47;;;29.85;10.44
49825;BME280;35714;55.708;37.478;2023-05-10T08:40:14;100259.22;;;30.23;10.07
49825;BME280;35714;55.708;37.478;2023-05-10T08:42:50;100258.69;;;30.55;8.81
49825;BME280;35714;55.708;37.478;2023-05-10T08:45:17;100251.06;;;30.92;9.13
49825;BME280;35714;55.708;37.478;2023-05-10T08:47:44;100263.53;;;31.60;8.85
49825;BME280;35714;55.708;37.478;2023-05-10T08:50:11;100259.78;;;32.00;9.02
49825;BME280;35714;55.708;37.478;2023-05-10T08:52:38;100253.28;;;32.60;8.54
49825;BME280;35714;55.708;37.478;2023-05-10T08:55:05;100244.41;;;33.25;8.55
49825;BME280;35714;55.708;37.478;2023-05-10T08:57:31;100249.19;;;33.84;8.98
49825;BME280;35714;55.708;37.478;2023-05-10T08:59:57;100247.50;;;34.48;8.45
49825;BME280;35714;55.708;37.478;2023-05-10T09:02:24;100244.28;;;35.00;7.65
49825;BME280;35714;55.708;37.478;2023-05-10T09:04:51;100250.09;;;35.14;6.75
49825;BME280;35714;55.708;37.478;2023-05-10T09:07:17;100248.84;;;34.81;7.00
49825;BME280;35714;55.708;37.478;2023-05-10T09:09:43;100237.63;;;34.85;6.71
49825;BME280;35714;55.708;37.478;2023-05-10T09:12:09;100246.72;;;35.01;6.63
49825;BME280;35714;55.708;37.478;2023-05-10T09:14:37;100240.91;;;35.21;6.92
49825;BME280;35714;55.708;37.478;2023-05-10T09:17:04;100235.47;;;34.75;7.00
49825;BME280;35714;55.708;37.478;2023-05-10T09:19:30;100226.81;;;34.64;6.80
49825;BME280;35714;55.708;37.478;2023-05-10T09:21:55;100237.19;;;34.33;7.00
49825;BME280;35714;55.708;37.478;2023-05-10T09:24:25;100232.75;;;33.86;6.52
49825;BME280;35714;55.708;37.478;2023-05-10T09:26:51;100227.91;;;33.24;6.89
49825;BME280;35714;55.708;37.478;2023-05-10T09:29:17;100222.88;;;32.62;7.56
49825;BME280;35714;55.708;37.478;2023-05-10T09:31:45;100225.19;;;32.09;7.85
49825;BME280;35714;55.708;37.478;2023-05-10T09:34:20;100225.00;;;31.57;7.14
49825;BME280;35714;55.708;37.478;2023-05-10T09:37:00;100225.16;;;31.64;7.75
49825;BME280;35714;55.708;37.478;2023-05-10T09:39:36;100218.19;;;32.02;7.98
49825;BME280;35714;55.708;37.478;2023-05-10T09:42:09;100214.31;;;32.07;7.91
49825;BME280;35714;55.708;37.478;2023-05-10T09:44:35;100206.25;;;32.37;7.87
49825;BME280;35714;55.708;37.478;2023-05-10T09:47:02;100202.59;;;32.69;7.67
49825;BME280;35714;55.708;37.478;2023-05-10T09:49:28;100194.63;;;32.55;7.69
49825;BME280;35714;55.708;37.478;2023-05-10T09:52:08;100201.78;;;32.68;7.58
49825;BME280;35714;55.708;37.478;2023-05-10T09:54:34;100193.56;;;33.34;7.36
49825;BME280;35714;55.708;37.478;2023-05-10T09:57:00;100199.53;;;33.72;6.75
49825;BME280;35714;55.708;37.478;2023-05-10T09:59:27;100191.94;;;33.33;7.19
49825;BME280;35714;55.708;37.478;2023-05-10T10:01:56;100193.03;;;32.38;7.01
49825;BME280;35714;55.708;37.478;2023-05-10T10:04:22;100178.91;;;31.14;7.50
49825;BME280;35714;55.708;37.478;2023-05-10T10:06:59;100180.66;;;29.92;7.87
49825;BME280;35714;55.708;37.478;2023-05-10T10:09:25;100176.94;;;28.91;8.46
49825;BME280;35714;55.708;37.478;2023-05-10T10:11:51;100176.72;;;28.24;9.30
49825;BME280;35714;55.708;37.478;2023-05-10T10:14:18;100175.25;;;27.70;9.79
49825;BME280;35714;55.708;37.478;2023-05-10T10:16:44;100175.63;;;27.43;9.96
49825;BME280;35714;55.708;37.478;2023-05-10T10:19:10;100171.72;;;27.26;10.45
49825;BME280;35714;55.708;37.478;2023-05-10T10:21:37;100173.84;;;27.29;10.50
49825;BME280;35714;55.708;37.478;2023-05-10T10:24:03;100169.91;;;27.39;9.96
49825;BME280;35714;55.708;37.478;2023-05-10T10:26:33;100161.56;;;27.39;10.24
49825;BME280;35714;55.708;37.478;2023-05-10T10:29:11;100154.53;;;27.42;9.95
49825;BME280;35714;55.708;37.478;2023-05-10T10:31:57;100161.53;;;27.30;9.83
49825;BME280;35714;55.708;37.478;2023-05-10T10:34:29;100158.59;;;26.83;9.83
49825;BME280;35714;55.708;37.478;2023-05-10T10:36:57;100158.28;;;26.76;10.62
49825;BME280;35714;55.708;37.478;2023-05-10T10:39:26;100154.78;;;26.61;10.41
49825;BME280;35714;55.708;37.478;2023-05-10T10:41:54;100142.75;;;26.17;11.28
49825;BME280;35714;55.708;37.478;2023-05-10T10:50:13;100156.16;;;25.84;11.90
49825;BME280;35714;55.708;37.478;2023-05-10T10:52:40;100147.66;;;25.80;11.82
49825;BME280;35714;55.708;37.478;2023-05-10T10:55:13;100137.91;;;25.91;11.64
49825;BME280;35714;55.708;37.478;2023-05-10T11:00:18;100138.03;;;26.18;11.41
49825;BME280;35714;55.708;37.478;2023-05-10T11:02:53;100129.00;;;26.12;11.22
49825;BME280;35714;55.708;37.478;2023-05-10T11:05:38;100141.78;;;26.13;11.98
49825;BME280;35714;55.708;37.478;2023-05-10T11:08:27;100135.50;;;25.99;12.39
49825;BME280;35714;55.708;37.478;2023-05-10T11:15:54;100117.94;;;25.27;12.86
49825;BME280;35714;55.708;37.478;2023-05-10T11:18:27;100114.78;;;25.19;12.49
49825;BME280;35714;55.708;37.478;2023-05-10T11:20:56;100118.94;;;25.08;12.43
49825;BME280;35714;55.708;37.478;2023-05-10T11:23:23;100120.19;;;25.02;12.19
49825;BME280;35714;55.708;37.478;2023-05-10T11:25:49;100116.63;;;25.01;12.41
49825;BME280;35714;55.708;37.478;2023-05-10T11:28:18;100116.78;;;25.05;12.89
49825;BME280;35714;55.708;37.478;2023-05-10T11:30:45;100107.31;;;24.83;12.39
49825;BME280;35714;55.708;37.478;2023-05-10T11:33:18;100112.09;;;24.55;12.65
49825;BME280;35714;55.708;37.478;2023-05-10T11:35:45;100100.88;;;24.24;12.99
49825;BME280;35714;55.708;37.478;2023-05-10T11:38:12;100105.22;;;24.02;13.17
49825;BME280;35714;55.708;37.478;2023-05-10T11:40:39;100101.47;;;23.65;13.84
49825;BME280;35714;55.708;37.478;2023-05-10T11:43:05;100102.47;;;23.41;13.90
49825;BME280;35714;55.708;37.478;2023-05-10T11:45:35;100099.97;;;23.26;14.49
49825;BME280;35714;55.708;37.478;2023-05-10T11:48:01;100107.91;;;23.14;14.72
49825;BME280;35714;55.708;37.478;2023-05-10T11:50:28;100105.31;;;23.03;14.88
49825;BME280;35714;55.708;37.478;2023-05-10T11:52:55;100103.59;;;22.88;14.98
49825;BME280;35714;55.708;37.478;2023-05-10T11:55:21;100100.41;;;22.81;14.48
49825;BME280;35714;55.708;37.478;2023-05-10T11:57:48;100094.00;;;22.67;14.65
49825;BME280;35714;55.708;37.478;2023-05-10T12:00:16;100089.88;;;22.64;14.46
49825;BME280;35714;55.708;37.478;2023-05-10T12:02:42;100083.44;;;22.88;14.91
49825;BME280;35714;55.708;37.478;2023-05-10T12:05:08;100082.09;;;23.65;14.64
49825;BME280;35714;55.708;37.478;2023-05-10T12:07:35;100082.97;;;24.44;13.89
49825;BME280;35714;55.708;37.478;2023-05-10T12:12:43;100081.41;;;25.65;13.20
49825;BME280;35714;55.708;37.478;2023-05-10T12:15:20;100074.56;;;25.71;12.75
49825;BME280;35714;55.708;37.478;2023-05-10T12:17:47;100072.50;;;25.45;12.93
49825;BME280;35714;55.708;37.478;2023-05-10T12:20:23;100064.31;;;25.17;12.90
49825;BME280;35714;55.708;37.478;2023-05-10T12:22:54;100069.63;;;24.60;13.10
49825;BME280;35714;55.708;37.478;2023-05-10T12:25:21;100066.22;;;24.12;13.84
49825;BME280;35714;55.708;37.478;2023-05-10T12:27:55;100065.53;;;23.93;13.77
49825;BME280;35714;55.708;37.478;2023-05-10T12:30:24;100061.31;;;23.82;13.73
49825;BME280;35714;55.708;37.478;2023-05-10T12:32:51;100066.41;;;23.60;13.72
49825;BME280;35714;55.708;37.478;2023-05-10T12:35:17;100055.25;;;23.52;13.89
49825;BME280;35714;55.708;37.478;2023-05-10T12:37:43;100060.22;;;23.36;13.65
49825;BME280;35714;55.708;37.478;2023-05-10T12:40:10;100054.66;;;23.08;13.82
49825;BME280;35714;55.708;37.478;2023-05-10T12:42:37;100055.16;;;22.91;14.36
49825;BME280;35714;55.708;37.478;2023-05-10T12:45:04;100066.69;;;22.79;14.93
49825;BME280;35714;55.708;37.478;2023-05-10T12:47:32;100067.16;;;22.67;15.06
49825;BME280;35714;55.708;37.478;2023-05-10T12:49:59;100057.91;;;22.58;15.56
49825;BME280;35714;55.708;37.478;2023-05-10T12:52:25;100054.63;;;22.56;15.18
49825;BME280;35714;55.708;37.478;2023-05-10T12:54:52;100071.22;;;22.56;15.04
49825;BME280;35714;55.708;37.478;2023-05-10T12:57:19;100053.19;;;22.40;15.15
49825;BME280;35714;55.708;37.478;2023-05-10T12:59:45;100056.94;;;22.30;15.62
49825;BME280;35714;55.708;37.478;2023-05-10T13:02:11;100048.00;;;22.14;15.62
49825;BME280;35714;55.708;37.478;2023-05-10T13:04:37;100056.38;;;22.09;15.71
49825;BME280;35714;55.708;37.478;2023-05-10T13:07:06;100053.56;;;21.90;15.79
49825;BME280;35714;55.708;37.478;2023-05-10T13:09:32;100047.94;;;21.76;15.61
49825;BME280;35714;55.708;37.478;2023-05-10T13:11:57;100049.41;;;21.68;15.92
49825;BME280;35714;55.708;37.478;2023-05-10T13:14:24;100048.34;;;21.64;16.13
49825;BME280;35714;55.708;37.478;2023-05-10T13:16:50;100049.59;;;21.53;16.53